Strona główna
METAR-TAF:

METAR-TAF

Lotnisko :

Port lotniczy Ambon

Ambon, Indonezja

Szerokość geograficzna: 03-42S, Długość geograficzna: 128-05E, wysokość: 12 m

Aktualna obserwacja pogody

Raport powstał 12 godziny i 54 minut temu, godzina 12:00 UTC
Wiatr 2 kt z kierunków zmiennych
Temperatura 25°C
Wilgotność 83%
Ciśnienie 1012 hPa
Widzialność 10 km lub więcej
Rozproszone chmury na wysokości 1700 ft

METAR: WAPP 251200Z VRB02KT 9999 SCT017 25/22 Q1012 NOSIG

czas: 09:54 (00:54 UTC)

Prognoza

Raport powstał 1 godzina i 54 minut temu, godzina 23:00 UTC
Prognoza ważna od 26 godzina 00 UTC do 26 godzina 24 UTC
Wiatr 7 kt od południowy wschód
Widzialność 10 km lub więcej
Rozproszone chmury na wysokości 1800 ft
Stopniowe zmiany
od 26 godzina 13 UTC do 26 godzina 15 UTC
Wiatr 6 kt od północno-północny zachód

TAF: WAPP 252300Z 2600/2624 14007KT 9999 SCT018 BECMG 2613/2615 34006KT

Obserwacja i prognoza pogody dla ponad 4000 lotnisk (raport METAR i TAF).

Dostępne stacje oznaczono żółtymi i czerwonymi punktami na mapie.

Najedź kursorem aby zobaczyć nazwę stacji.

Kliknij aby zobaczyć obserwacje i prognozy pogody.

Aby zmienić mapę: kliknij na zielony przycisk z czarnym krzyżykiem, aby powiększyć; na zielony przycisk z myślnikiem, aby pomniejszyć; na zielone strzałki, aby przejść do map sąsiednich.


METAR-TAF: